Time;durP1;ratioP1;P1;durP2;ratioP2;P2;SDS_P1;SDS_P2;PMS_P1;PMS_P2;Temp;Humidity;BMP_temperature;BMP_pressure;BME280_temperature;BME280_humidity;BME280_pressure;Samples;Min_cycle;Max_cycle;Signal;HPM_P1;HPM_P2
2023/08/01 00:01:29;;;;;;;10.25;4.45;;;;;;;17.31;nan;100074.00;5015236;28;20036;-71
2023/08/01 00:03:54;;;;;;;9.23;4.72;;;;;;;17.30;nan;100076.91;5017541;28;20090;-72
2023/08/01 00:06:21;;;;;;;12.10;4.60;;;;;;;17.15;nan;100053.88;5014243;28;20030;-71
2023/08/01 00:08:47;;;;;;;8.10;4.22;;;;;;;17.20;nan;100073.25;5014871;28;20030;-72
2023/08/01 00:11:14;;;;;;;10.90;4.20;;;;;;;17.11;nan;100071.44;5017958;28;20067;-73
2023/08/01 00:13:40;;;;;;;9.88;4.60;;;;;;;17.08;nan;100074.69;5016688;28;20101;-71
2023/08/01 00:16:05;;;;;;;7.00;4.28;;;;;;;17.07;nan;100081.03;5017795;28;20033;-71
2023/08/01 00:18:31;;;;;;;8.77;4.45;;;;;;;16.98;nan;100070.22;5022999;28;20044;-71
2023/08/01 00:20:56;;;;;;;11.45;4.20;;;;;;;17.04;nan;100081.59;5017855;28;20021;-75
2023/08/01 00:23:21;;;;;;;11.05;4.13;;;;;;;16.85;nan;100046.88;5015376;28;20476;-75
2023/08/01 00:25:51;;;;;;;8.63;4.30;;;;;;;17.04;nan;100068.31;5015658;28;20511;-76
2023/08/01 00:28:21;;;;;;;9.05;4.20;;;;;;;16.94;nan;100047.88;5019036;28;20064;-75
2023/08/01 00:30:47;;;;;;;7.15;4.47;;;;;;;16.98;nan;100059.56;5018343;28;20475;-75
2023/08/01 00:33:13;;;;;;;9.88;3.97;;;;;;;17.01;nan;100059.00;5016725;28;20032;-76
2023/08/01 00:35:38;;;;;;;28.00;4.30;;;;;;;16.92;nan;100047.38;5015563;28;20026;-75
2023/08/01 00:38:04;;;;;;;11.30;4.15;;;;;;;16.92;nan;100050.03;5023929;28;20033;-79
2023/08/01 00:40:31;;;;;;;10.20;3.90;;;;;;;16.98;nan;100054.25;5019462;28;20061;-76
2023/08/01 00:42:57;;;;;;;7.13;4.03;;;;;;;16.93;nan;100052.41;5014302;28;20021;-76
2023/08/01 00:45:24;;;;;;;8.82;4.20;;;;;;;16.96;nan;100064.38;5023999;28;20603;-75
2023/08/01 00:47:51;;;;;;;11.48;3.88;;;;;;;16.94;nan;100058.53;5020788;28;20135;-75
2023/08/01 00:50:20;;;;;;;7.30;3.70;;;;;;;16.94;nan;100061.19;5014670;28;20033;-76
2023/08/01 00:52:45;;;;;;;7.88;3.58;;;;;;;16.87;nan;100061.47;5016589;28;20042;-75
2023/08/01 00:55:11;;;;;;;9.38;4.07;;;;;;;16.67;nan;100033.13;5017422;28;20041;-75
2023/08/01 00:57:36;;;;;;;7.85;3.67;;;;;;;16.87;nan;100064.13;5015049;28;20463;-76
2023/08/01 01:00:02;;;;;;;8.82;3.67;;;;;;;16.73;nan;100044.50;5012230;28;20026;-75
2023/08/01 01:02:27;;;;;;;12.43;4.35;;;;;;;16.68;nan;100036.56;5016485;28;20061;-76
2023/08/01 01:04:52;;;;;;;7.68;4.00;;;;;;;16.69;nan;100048.78;5017713;28;20033;-75
2023/08/01 01:07:19;;;;;;;10.88;3.95;;;;;;;16.67;nan;100049.06;5017780;28;20030;-77
2023/08/01 01:09:44;;;;;;;9.32;4.55;;;;;;;16.63;nan;100050.69;5017082;28;20028;-75
2023/08/01 01:12:10;;;;;;;7.65;3.83;;;;;;;16.61;nan;100049.38;5021960;28;20029;-75
2023/08/01 01:14:35;;;;;;;7.10;4.22;;;;;;;16.50;nan;100024.72;5015896;28;20058;-76
2023/08/01 01:17:00;;;;;;;10.25;4.50;;;;;;;16.50;nan;100028.16;5016855;28;20108;-75
2023/08/01 01:19:26;;;;;;;10.48;4.63;;;;;;;16.42;nan;100020.72;5017690;28;20061;-76
2023/08/01 01:22:16;;;;;;;9.95;4.22;;;;;;;16.40;nan;100030.06;5019868;28;20128;-75
2023/08/01 01:24:42;;;;;;;8.00;3.97;;;;;;;16.13;nan;99988.72;5030350;28;20025;-75
2023/08/01 01:27:08;;;;;;;10.88;4.45;;;;;;;16.29;nan;100022.13;5030749;28;20045;-75
2023/08/01 01:29:34;;;;;;;8.15;4.63;;;;;;;16.13;nan;100007.31;5021662;28;20025;-67
2023/08/01 01:32:00;;;;;;;7.38;4.20;;;;;;;16.04;nan;100020.38;5013935;28;20025;-66
2023/08/01 01:34:27;;;;;;;8.90;4.20;;;;;;;16.02;nan;100013.72;5012312;28;20464;-67
2023/08/01 01:36:53;;;;;;;10.05;4.10;;;;;;;15.99;nan;100022.22;5015343;28;20033;-67
2023/08/01 01:39:18;;;;;;;10.57;4.70;;;;;;;15.94;nan;100026.47;5015309;28;20109;-67
2023/08/01 01:41:44;;;;;;;8.82;4.20;;;;;;;15.89;nan;100020.38;5014293;28;20033;-67
2023/08/01 01:44:09;;;;;;;9.98;4.25;;;;;;;15.81;nan;100021.75;5014560;28;20440;-68
2023/08/01 01:46:34;;;;;;;7.03;4.00;;;;;;;15.76;nan;100013.00;5013296;28;20029;-68
2023/08/01 01:49:00;;;;;;;12.27;4.47;;;;;;;15.73;nan;100003.72;5016626;28;20108;-68
2023/08/01 01:51:26;;;;;;;8.88;4.13;;;;;;;15.74;nan;100016.69;5014990;28;20044;-67
2023/08/01 01:53:52;;;;;;;9.15;4.40;;;;;;;15.62;nan;100008.19;5014777;28;20108;-67
2023/08/01 01:56:17;;;;;;;10.07;4.35;;;;;;;15.64;nan;100014.03;5014801;28;20122;-67
2023/08/01 01:58:43;;;;;;;9.55;4.50;;;;;;;15.58;nan;100009.78;5015240;28;20112;-68
2023/08/01 02:01:08;;;;;;;10.50;4.30;;;;;;;15.49;nan;100014.03;5014132;28;20071;-67
2023/08/01 02:03:33;;;;;;;6.82;4.07;;;;;;;15.49;nan;100016.69;5015907;28;20046;-67
2023/08/01 02:05:59;;;;;;;9.57;4.22;;;;;;;15.47;nan;100019.63;5016678;28;20033;-68
2023/08/01 02:08:24;;;;;;;11.63;4.45;;;;;;;15.44;nan;100011.41;5015858;28;20450;-67
2023/08/01 02:10:49;;;;;;;10.75;5.03;;;;;;;15.33;nan;99994.69;5014854;28;20029;-68
2023/08/01 02:13:16;;;;;;;21.63;11.75;;;;;;;15.32;nan;100004.53;5015509;28;20053;-67
2023/08/01 02:15:41;;;;;;;18.65;11.52;;;;;;;15.35;nan;100011.16;5018473;28;20091;-67
2023/08/01 02:18:07;;;;;;;21.40;12.70;;;;;;;15.28;nan;99994.72;5015270;28;20030;-68
2023/08/01 02:20:32;;;;;;;19.30;9.70;;;;;;;15.30;nan;100000.53;5017521;28;20021;-66
2023/08/01 02:22:58;;;;;;;16.20;8.63;;;;;;;15.37;nan;100016.19;5013001;28;20045;-68
2023/08/01 02:25:23;;;;;;;15.38;7.65;;;;;;;15.27;nan;100004.50;5015752;28;20056;-68
2023/08/01 02:27:48;;;;;;;15.25;8.00;;;;;;;15.32;nan;100012.47;5011934;28;20022;-68
2023/08/01 02:30:14;;;;;;;11.95;6.97;;;;;;;15.19;nan;100005.03;5012941;28;20443;-67
2023/08/01 02:32:39;;;;;;;13.23;6.53;;;;;;;15.05;nan;99994.16;5015732;28;20029;-68
2023/08/01 02:35:05;;;;;;;12.02;6.40;;;;;;;15.20;nan;100025.19;5014458;28;20029;-69
2023/08/01 02:37:30;;;;;;;9.75;5.30;;;;;;;15.07;nan;100005.28;5018641;28;20034;-67
2023/08/01 02:39:55;;;;;;;8.50;5.30;;;;;;;14.92;nan;100007.94;5020570;28;20030;-67
2023/08/01 02:42:21;;;;;;;12.00;4.95;;;;;;;14.97;nan;100020.41;5018869;28;20610;-67
2023/08/01 02:44:46;;;;;;;11.63;5.47;;;;;;;14.88;nan;100014.81;5016695;28;20037;-67
2023/08/01 02:47:12;;;;;;;11.70;5.28;;;;;;;14.90;nan;100025.97;5015704;28;20030;-67
2023/08/01 02:49:37;;;;;;;6.93;4.47;;;;;;;14.86;nan;100025.69;5015532;28;20030;-67
2023/08/01 02:52:03;;;;;;;10.52;4.68;;;;;;;14.86;nan;100019.59;5015053;28;20037;-67
2023/08/01 02:54:28;;;;;;;8.80;4.60;;;;;;;14.77;nan;100007.91;5015398;28;20029;-71
2023/08/01 02:56:53;;;;;;;10.75;4.50;;;;;;;14.79;nan;100016.38;5016208;28;20044;-71
2023/08/01 02:59:19;;;;;;;12.30;4.78;;;;;;;14.76;nan;100011.63;5018522;28;20077;-71
2023/08/01 03:01:44;;;;;;;10.95;4.28;;;;;;;14.74;nan;100001.25;5029691;28;20030;-71
2023/08/01 03:04:11;;;;;;;10.15;4.18;;;;;;;14.79;nan;100011.09;5032057;28;20097;-71
2023/08/01 03:06:38;;;;;;;11.63;4.90;;;;;;;14.81;nan;100009.75;5024374;28;20160;-71
2023/08/01 03:09:07;;;;;;;8.23;4.35;;;;;;;14.82;nan;100011.38;5023374;28;20040;-73
2023/08/01 03:11:33;;;;;;;11.63;4.70;;;;;;;14.86;nan;100017.72;5018943;28;20044;-70
2023/08/01 03:13:58;;;;;;;11.25;4.55;;;;;;;14.85;nan;100018.00;5018856;28;20033;-75
2023/08/01 03:16:24;;;;;;;9.27;4.20;;;;;;;14.87;nan;100021.19;5026659;28;20089;-70
2023/08/01 03:18:49;;;;;;;9.00;4.10;;;;;;;14.84;nan;100019.88;5027963;28;20029;-72
2023/08/01 03:21:15;;;;;;;7.70;4.22;;;;;;;14.78;nan;100007.66;5029108;28;20085;-71
2023/08/01 03:23:40;;;;;;;8.43;4.15;;;;;;;14.80;nan;100010.03;5040815;28;20947;-71
2023/08/01 03:26:06;;;;;;;8.88;4.22;;;;;;;14.80;nan;100015.34;5029580;28;20025;-70
2023/08/01 03:28:31;;;;;;;10.80;4.18;;;;;;;14.76;nan;100001.00;5040051;28;20039;-71
2023/08/01 03:30:56;;;;;;;10.70;4.10;;;;;;;14.86;nan;100022.22;5040823;28;20048;-71
2023/08/01 03:33:22;;;;;;;9.75;4.10;;;;;;;14.84;nan;100022.50;5034972;28;20025;-70
2023/08/01 03:35:47;;;;;;;15.07;4.75;;;;;;;14.80;nan;100016.13;5027713;28;20511;-70
2023/08/01 03:38:12;;;;;;;8.10;4.40;;;;;;;14.73;nan;100025.41;5025181;28;20026;-71
2023/08/01 03:40:38;;;;;;;10.30;4.15;;;;;;;14.56;nan;100025.63;5018952;28;20485;-71
2023/08/01 03:43:04;;;;;;;12.88;4.45;;;;;;;14.38;nan;100017.03;5016718;28;20060;-68
2023/08/01 03:45:30;;;;;;;14.80;4.63;;;;;;;14.38;nan;100010.94;5016280;28;20061;-67
2023/08/01 03:47:55;;;;;;;8.40;4.80;;;;;;;14.46;nan;100021.84;5016066;28;20498;-72
2023/08/01 03:50:21;;;;;;;13.88;4.38;;;;;;;14.47;nan;100019.97;5022645;28;20075;-71
2023/08/01 03:52:46;;;;;;;11.65;4.63;;;;;;;14.46;nan;100015.72;5020560;28;20025;-70
2023/08/01 03:55:12;;;;;;;9.68;4.22;;;;;;;14.42;nan;100023.41;5020353;28;20472;-71
2023/08/01 03:57:38;;;;;;;9.23;4.47;;;;;;;14.15;nan;99988.31;5050410;28;20491;-71
2023/08/01 04:00:05;;;;;;;11.88;5.28;;;;;;;14.37;nan;100023.41;5016101;28;20072;-71
2023/08/01 04:02:31;;;;;;;7.70;4.70;;;;;;;14.46;nan;100032.44;5016228;28;20022;-71
2023/08/01 04:04:56;;;;;;;14.40;4.97;;;;;;;14.47;nan;100025.28;5017052;28;20412;-71
2023/08/01 04:07:21;;;;;;;10.05;4.20;;;;;;;14.54;nan;100025.88;5019331;28;20017;-71
2023/08/01 04:09:48;;;;;;;7.40;4.32;;;;;;;14.49;nan;100023.19;5019556;28;20028;-71
2023/08/01 04:12:14;;;;;;;11.15;4.47;;;;;;;14.52;nan;100019.22;5016899;28;20688;-71
2023/08/01 04:14:39;;;;;;;12.27;4.55;;;;;;;14.57;nan;100027.19;5017987;28;20021;-67
2023/08/01 04:17:05;;;;;;;13.07;4.60;;;;;;;14.66;nan;100034.38;5018347;28;20443;-68
2023/08/01 04:19:30;;;;;;;9.60;5.30;;;;;;;14.68;nan;100023.53;5017271;28;20036;-74
2023/08/01 04:21:55;;;;;;;12.00;4.97;;;;;;;14.74;nan;100027.78;5016163;28;20419;-73
2023/08/01 04:24:24;;;;;;;10.13;4.85;;;;;;;14.75;nan;100034.69;5014909;28;20443;-73
2023/08/01 04:26:50;;;;;;;10.68;4.30;;;;;;;14.77;nan;100034.41;5015802;28;20748;-75
2023/08/01 04:29:17;;;;;;;10.70;4.97;;;;;;;14.80;nan;100018.78;5018294;28;20044;-74
2023/08/01 04:31:43;;;;;;;10.40;4.30;;;;;;;14.91;nan;100022.25;5017944;28;20072;-76
2023/08/01 04:34:08;;;;;;;7.85;4.07;;;;;;;15.04;nan;100029.69;5019836;28;20049;-75
2023/08/01 04:36:34;;;;;;;14.25;5.03;;;;;;;15.10;nan;100022.53;5014830;28;20032;-77
2023/08/01 04:38:59;;;;;;;17.27;4.88;;;;;;;15.13;nan;100018.56;5015637;28;20539;-73
2023/08/01 04:41:24;;;;;;;12.02;5.07;;;;;;;15.33;nan;100039.81;5016452;28;20128;-74
2023/08/01 04:43:50;;;;;;;10.48;5.43;;;;;;;15.31;nan;100026.78;5016877;28;20472;-70
2023/08/01 04:46:15;;;;;;;13.75;4.82;;;;;;;15.34;nan;100020.16;5018186;28;20415;-69
2023/08/01 04:48:41;;;;;;;13.15;4.82;;;;;;;15.41;nan;100027.84;5015197;28;20022;-70
2023/08/01 04:51:06;;;;;;;14.93;5.00;;;;;;;15.53;nan;100023.84;5016045;28;20186;-69
2023/08/01 04:53:31;;;;;;;13.50;4.70;;;;;;;15.40;nan;99997.09;5014826;28;20057;-69
2023/08/01 04:55:57;;;;;;;14.70;4.97;;;;;;;15.71;nan;100037.69;5033177;28;20029;-69
2023/08/01 04:58:22;;;;;;;13.18;4.88;;;;;;;15.79;nan;100034.47;5019313;28;20056;-68
2023/08/01 05:00:48;;;;;;;13.02;4.50;;;;;;;15.88;nan;100032.88;5014553;28;20025;-70
2023/08/01 05:03:13;;;;;;;11.98;5.00;;;;;;;15.98;nan;100021.44;5016995;28;20037;-68
2023/08/01 05:05:38;;;;;;;23.25;5.05;;;;;;;16.14;nan;100024.84;5021381;28;20036;-69
2023/08/01 05:08:04;;;;;;;15.88;5.25;;;;;;;16.18;nan;100025.88;5003451;28;20079;-69
2023/08/01 05:10:29;;;;;;;13.70;5.07;;;;;;;16.51;nan;100055.53;5016897;28;20032;-69
2023/08/01 05:12:54;;;;;;;31.02;5.57;;;;;;;16.47;nan;100033.22;5018107;28;20025;-67
2023/08/01 05:15:20;;;;;;;30.50;5.43;;;;;;;16.49;nan;100015.91;5011025;28;20025;-69
2023/08/01 05:17:45;;;;;;;19.23;4.60;;;;;;;16.68;nan;100023.28;5017242;28;20410;-69
2023/08/01 05:20:11;;;;;;;16.13;4.05;;;;;;;16.79;nan;100022.19;5011792;28;20046;-66
2023/08/01 05:22:36;;;;;;;11.27;3.75;;;;;;;16.90;nan;100020.25;5014931;28;20050;-65
2023/08/01 05:25:03;;;;;;;16.85;4.35;;;;;;;16.93;nan;100009.06;5016247;28;20076;-66
2023/08/01 05:27:29;;;;;;;18.90;5.10;;;;;;;17.01;nan;100005.81;5018535;28;20071;-67
2023/08/01 05:29:54;;;;;;;10.70;3.97;;;;;;;17.10;nan;100011.34;5016331;28;20472;-66
2023/08/01 05:32:19;;;;;;;13.77;4.20;;;;;;;17.19;nan;100009.66;5012841;28;20558;-70
2023/08/01 05:34:45;;;;;;;11.70;4.10;;;;;;;17.26;nan;100012.00;5015817;28;20282;-70
2023/08/01 05:37:10;;;;;;;11.32;3.58;;;;;;;17.46;nan;100016.38;5016942;28;20061;-70
2023/08/01 05:39:35;;;;;;;9.88;3.78;;;;;;;17.52;nan;100017.91;5014553;28;20472;-70
2023/08/01 05:42:01;;;;;;;10.55;3.63;;;;;;;17.59;nan;100013.84;5016605;28;20443;-69
2023/08/01 05:44:26;;;;;;;26.95;4.55;;;;;;;17.77;nan;100016.88;5020011;28;20037;-76
2023/08/01 05:46:51;;;;;;;8.80;3.63;;;;;;;;;;5018213;28;20036;-70
2023/08/01 05:49:17;;;;;;;13.50;4.13;;;;;;;;;;5049197;28;20488;-70
2023/08/01 05:51:42;;;;;;;18.63;4.10;;;;;;;;;;5018826;28;20021;-71
2023/08/01 05:54:07;;;;;;;11.03;3.70;;;;;;;;;;5015630;28;20276;-71
2023/08/01 05:56:33;;;;;;;26.47;4.40;;;;;;;;;;5013324;28;20357;-71
2023/08/01 05:58:58;;;;;;;15.48;3.88;;;;;;;;;;5013357;28;20346;-70
2023/08/01 06:01:24;;;;;;;19.65;4.25;;;;;;;;;;5015206;28;20084;-71
2023/08/01 06:03:50;;;;;;;8.73;4.10;;;;;;;18.28;nan;99958.47;5012841;28;20521;-71
2023/08/01 06:06:15;;;;;;;7.93;3.15;;;;;;;18.31;nan;100006.97;5013437;28;20120;-71
2023/08/01 06:08:40;;;;;;;6.05;3.47;;;;;;;18.36;nan;100002.38;5015345;28;20044;-71
2023/08/01 06:11:06;;;;;;;13.13;3.20;;;;;;;18.48;nan;100004.59;5016240;28;20568;-71
2023/08/01 06:13:31;;;;;;;11.35;3.33;;;;;;;18.71;nan;100006.44;5016602;28;20069;-70
2023/08/01 06:15:57;;;;;;;11.77;3.50;;;;;;;18.81;nan;100004.72;5015201;28;20026;-70
2023/08/01 06:18:22;;;;;;;14.60;4.00;;;;;;;18.69;nan;99968.56;5016773;28;20092;-71
2023/08/01 06:20:48;;;;;;;6.75;3.60;;;;;;;18.97;nan;99998.09;5015195;28;20395;-70
2023/08/01 06:23:13;;;;;;;11.13;3.67;;;;;;;19.00;nan;99986.81;5019737;28;20041;-70
2023/08/01 06:25:38;;;;;;;8.55;3.60;;;;;;;19.10;nan;99981.31;5013484;28;20022;-70
2023/08/01 06:28:04;;;;;;;7.95;3.47;;;;;;;19.13;nan;99991.44;5017805;28;20036;-69
2023/08/01 06:30:29;;;;;;;7.82;3.58;;;;;;;19.22;nan;99988.09;5021471;28;20108;-70
2023/08/01 06:32:55;;;;;;;7.50;3.60;;;;;;;19.23;nan;99990.47;5019031;28;20025;-70
2023/08/01 06:35:21;;;;;;;10.43;3.40;;;;;;;19.33;nan;99989.50;5020276;28;20037;-70
2023/08/01 06:37:46;;;;;;;11.52;4.22;;;;;;;19.37;nan;99987.03;5017192;28;20037;-70
2023/08/01 06:40:11;;;;;;;11.27;4.00;;;;;;;19.43;nan;99991.19;5021487;28;20028;-69
2023/08/01 06:42:37;;;;;;;11.50;4.10;;;;;;;19.49;nan;99988.16;5017769;28;20037;-70
2023/08/01 06:45:02;;;;;;;6.93;3.78;;;;;;;19.53;nan;99988.34;5021418;28;20022;-70
2023/08/01 06:47:28;;;;;;;8.95;3.80;;;;;;;19.30;nan;99939.38;5024414;28;20022;-70
2023/08/01 06:49:53;;;;;;;6.70;3.55;;;;;;;19.70;nan;99991.25;5023484;28;20031;-67
2023/08/01 06:52:19;;;;;;;8.48;3.58;;;;;;;19.75;nan;99983.19;5019278;28;20040;-68
2023/08/01 06:54:44;;;;;;;10.00;3.97;;;;;;;19.97;nan;99981.69;5016212;28;20392;-68
2023/08/01 06:57:10;;;;;;;8.70;4.05;;;;;;;20.13;nan;99926.81;5016846;28;20068;-69
2023/08/01 06:59:35;;;;;;;12.38;3.97;;;;;;;20.19;nan;99920.28;5016869;28;20403;-67
2023/08/01 07:02:01;;;;;;;5.95;3.33;;;;;;;20.27;nan;99931.34;5013782;28;20032;-69
2023/08/01 07:04:26;;;;;;;6.93;3.50;;;;;;;20.31;nan;99919.75;5017382;28;20021;-69
2023/08/01 07:06:52;;;;;;;6.35;3.10;;;;;;;20.56;nan;99926.41;5015673;28;20380;-69
2023/08/01 07:09:17;;;;;;;6.85;2.88;;;;;;;20.69;nan;99922.13;5020335;28;20717;-68
2023/08/01 07:11:43;;;;;;;8.88;3.03;;;;;;;20.69;nan;99894.59;5016936;28;20030;-70
2023/08/01 07:14:08;;;;;;;7.53;3.00;;;;;;;;;;5016881;28;20048;-69
2023/08/01 07:16:33;;;;;;;6.78;2.55;;;;;;;20.94;nan;99931.41;5016531;28;20041;-68
2023/08/01 07:19:02;;;;;;;4.78;2.65;;;;;;;21.07;nan;99934.31;5016506;28;20025;-72
2023/08/01 07:21:28;;;;;;;7.70;2.73;;;;;;;21.13;nan;99925.84;5013754;28;20061;-72
2023/08/01 07:23:54;;;;;;;6.95;2.67;;;;;;;21.24;nan;99929.06;5017286;28;20547;-73
2023/08/01 07:26:19;;;;;;;7.72;3.40;;;;;;;;;;5018784;28;20133;-71
2023/08/01 07:28:45;;;;;;;11.27;3.00;;;;;;;21.45;nan;99910.59;5017277;28;20017;-72
2023/08/01 07:31:10;;;;;;;6.03;2.70;;;;;;;21.50;nan;99875.66;5016305;28;20277;-71
2023/08/01 07:33:36;;;;;;;7.80;3.22;;;;;;;21.54;nan;99970.34;5016707;28;20025;-71
2023/08/01 07:36:02;;;;;;;7.03;3.10;;;;;;;21.67;nan;99897.13;5015898;28;20030;-72
2023/08/01 07:38:27;;;;;;;5.32;3.15;;;;;;;21.78;nan;100002.13;5016498;28;20076;-71
2023/08/01 07:40:54;;;;;;;6.35;3.00;;;;;;;21.88;nan;99926.00;5014988;28;20500;-71
2023/08/01 07:43:19;;;;;;;8.60;2.33;;;;;;;21.98;nan;99924.94;5020122;28;20035;-72
2023/08/01 07:45:45;;;;;;;6.72;2.75;;;;;;;22.03;nan;99967.69;5014288;28;20017;-73
2023/08/01 07:48:10;;;;;;;6.60;2.95;;;;;;;;;;5018341;28;20065;-72
2023/08/01 07:50:36;;;;;;;7.72;2.80;;;;;;;22.24;nan;99919.63;5014930;28;20456;-72
2023/08/01 07:53:01;;;;;;;9.88;2.85;;;;;;;22.29;nan;99914.09;5018872;28;20510;-73
2023/08/01 07:55:27;;;;;;;6.15;2.75;;;;;;;22.41;nan;99875.91;5018508;28;20042;-72
2023/08/01 07:57:52;;;;;;;9.13;2.72;;;;;;;22.61;nan;99926.28;5016315;28;20022;-72
2023/08/01 08:00:17;;;;;;;5.25;2.33;;;;;;;22.66;nan;99938.75;5018927;28;20033;-72
2023/08/01 08:02:45;;;;;;;10.35;2.80;;;;;;;;;;5015708;28;20426;-72
2023/08/01 08:05:11;;;;;;;6.65;2.55;;;;;;;22.85;nan;99903.50;5017413;28;20026;-72
2023/08/01 08:07:37;;;;;;;6.28;2.53;;;;;;;22.93;nan;99887.34;5015473;28;20041;-72
2023/08/01 08:10:06;;;;;;;6.35;2.30;;;;;;;23.05;nan;99927.00;5015138;28;20041;-71
2023/08/01 08:12:31;;;;;;;4.82;2.33;;;;;;;23.13;nan;99923.53;5017075;28;20053;-69
2023/08/01 08:14:57;;;;;;;5.00;2.00;;;;;;;23.17;nan;99904.06;5017465;28;20068;-69
2023/08/01 08:17:22;;;;;;;9.27;2.28;;;;;;;23.26;nan;99945.91;5015731;28;20083;-69
2023/08/01 08:19:48;;;;;;;5.63;1.90;;;;;;;;;;5016812;28;20594;-69
2023/08/01 08:22:13;;;;;;;9.55;2.40;;;;;;;23.47;nan;99916.44;5016082;28;20504;-69
2023/08/01 08:24:39;;;;;;;6.93;2.45;;;;;;;23.55;nan;99931.72;5014257;28;20033;-69
2023/08/01 08:27:04;;;;;;;6.25;1.88;;;;;;;23.59;nan;99888.09;5017206;28;20495;-69
2023/08/01 08:29:31;;;;;;;3.72;1.90;;;;;;;23.63;nan;99902.44;5018487;28;20049;-69
2023/08/01 08:31:57;;;;;;;5.00;2.00;;;;;;;23.79;nan;99900.81;5016172;28;20034;-69
2023/08/01 08:34:22;;;;;;;4.40;2.20;;;;;;;23.87;nan;99885.72;5015092;28;20052;-69
2023/08/01 08:36:49;;;;;;;3.97;2.20;;;;;;;23.95;nan;99890.28;5017760;28;20034;-75
2023/08/01 08:39:16;;;;;;;3.80;1.67;;;;;;;24.04;nan;99944.00;5012841;28;20301;-69
2023/08/01 08:41:47;;;;;;;11.48;1.98;;;;;;;24.11;nan;99946.94;5015579;28;20025;-69
2023/08/01 08:44:16;;;;;;;4.15;2.42;;;;;;;24.18;nan;99902.28;5015049;28;20103;-69
2023/08/01 08:46:45;;;;;;;4.10;1.95;;;;;;;24.27;nan;99898.75;5015235;28;20834;-69
2023/08/01 08:49:11;;;;;;;11.15;2.00;;;;;;;24.36;nan;99894.06;5016025;28;20384;-69
2023/08/01 08:51:38;;;;;;;6.25;2.15;;;;;;;24.44;nan;99916.66;5014009;28;20017;-69
2023/08/01 08:54:05;;;;;;;6.65;2.10;;;;;;;24.51;nan;99881.94;5016734;28;20034;-69
2023/08/01 08:56:33;;;;;;;7.28;2.22;;;;;;;24.66;nan;99867.06;5018911;28;20476;-69
2023/08/01 08:58:59;;;;;;;3.58;1.70;;;;;;;24.70;nan;99849.91;5014232;28;20033;-69
2023/08/01 09:01:24;;;;;;;3.58;1.67;;;;;;;24.74;nan;99912.75;5013885;28;20036;-70
2023/08/01 09:03:50;;;;;;;2.92;1.67;;;;;;;24.87;nan;99848.16;5013004;28;20041;-68
2023/08/01 09:06:17;;;;;;;3.25;1.70;;;;;;;24.96;nan;99856.94;5014020;28;20645;-69
2023/08/01 09:09:02;;;;;;;5.10;1.65;;;;;;;24.99;nan;99843.56;5017486;28;20030;-75
2023/08/01 09:11:27;;;;;;;2.47;1.50;;;;;;;25.12;nan;99863.22;5015755;28;20026;-75
2023/08/01 09:13:53;;;;;;;4.25;1.83;;;;;;;25.19;nan;99854.63;5016684;28;20492;-75
2023/08/01 09:16:19;;;;;;;2.95;1.65;;;;;;;25.20;nan;99853.50;5013444;28;20030;-75
2023/08/01 09:18:49;;;;;;;9.85;1.80;;;;;;;25.29;nan;99859.56;5021031;28;20025;-75
2023/08/01 09:21:18;;;;;;;3.92;1.85;;;;;;;25.30;nan;99887.28;5014565;28;20049;-74
2023/08/01 09:23:44;;;;;;;5.30;2.00;;;;;;;25.31;nan;99800.72;5015107;28;20030;-75
2023/08/01 09:26:17;;;;;;;2.65;1.50;;;;;;;25.42;nan;99852.25;5010617;28;20040;-73
2023/08/01 09:28:42;;;;;;;4.80;1.60;;;;;;;25.49;nan;99835.50;5013593;28;20029;-72
2023/08/01 09:31:10;;;;;;;2.95;1.38;;;;;;;25.53;nan;99836.41;5015814;28;20049;-72
2023/08/01 09:33:40;;;;;;;4.30;2.00;;;;;;;25.60;nan;99805.06;5014633;28;20041;-71
2023/08/01 09:36:07;;;;;;;3.88;1.52;;;;;;;25.62;nan;99792.03;5024892;28;20143;-71
2023/08/01 09:38:37;;;;;;;8.25;1.80;;;;;;;25.66;nan;99805.59;5021465;28;20040;-72
2023/08/01 09:41:04;;;;;;;3.70;1.67;;;;;;;25.76;nan;99847.47;5030141;28;20037;-72
2023/08/01 09:43:36;;;;;;;3.90;1.75;;;;;;;25.82;nan;99844.22;5037468;28;20041;-72
2023/08/01 09:46:02;;;;;;;4.53;1.52;;;;;;;25.86;nan;99837.06;5044186;28;20048;-72
2023/08/01 09:48:29;;;;;;;5.97;1.77;;;;;;;25.98;nan;99838.94;5034994;28;20093;-73
2023/08/01 09:51:08;;;;;;;4.10;1.70;;;;;;;26.15;nan;99837.09;5038679;28;20086;-72
2023/08/01 09:53:35;;;;;;;9.25;2.45;;;;;;;26.18;nan;99823.66;5053459;28;20052;-71
2023/08/01 09:56:04;;;;;;;3.33;1.55;;;;;;;26.29;nan;99830.16;5044788;28;20018;-71
2023/08/01 09:58:33;;;;;;;2.97;1.70;;;;;;;26.34;nan;99823.72;5034174;28;20041;-71
2023/08/01 10:01:00;;;;;;;4.60;1.60;;;;;;;26.34;nan;99815.63;5036855;28;20086;-71
2023/08/01 10:03:27;;;;;;;4.85;1.60;;;;;;;26.43;nan;99813.53;5049470;28;20029;-72
2023/08/01 10:05:54;;;;;;;4.90;1.45;;;;;;;26.48;nan;99821.41;5038414;28;20073;-70
2023/08/01 10:08:21;;;;;;;3.15;2.00;;;;;;;26.51;nan;99803.72;5027548;28;20025;-67
2023/08/01 10:10:47;;;;;;;3.17;1.50;;;;;;;26.57;nan;99796.94;5027218;28;20036;-68
2023/08/01 10:13:13;;;;;;;4.60;1.65;;;;;;;26.65;nan;99798.72;5019779;28;20041;-68
2023/08/01 10:15:39;;;;;;;3.85;1.33;;;;;;;26.72;nan;99793.47;5020310;28;20104;-68
2023/08/01 10:18:04;;;;;;;4.32;1.90;;;;;;;26.72;nan;99776.47;5022554;28;20120;-68
2023/08/01 10:20:31;;;;;;;3.72;1.58;;;;;;;26.86;nan;99784.91;5019438;28;20100;-68
2023/08/01 10:22:57;;;;;;;3.67;1.40;;;;;;;26.92;nan;99780.84;5024589;28;20065;-76
2023/08/01 10:25:23;;;;;;;6.65;1.73;;;;;;;26.90;nan;99782.31;5041632;28;20016;-76
2023/08/01 10:28:02;;;;;;;6.50;1.83;;;;;;;26.93;nan;99779.69;5049097;28;20014;-76
2023/08/01 10:30:29;;;;;;;4.40;1.60;;;;;;;26.99;nan;99779.44;5039747;28;20115;-77
2023/08/01 10:32:59;;;;;;;2.20;1.48;;;;;;;27.07;nan;99775.75;5026651;28;20032;-77
2023/08/01 10:35:39;;;;;;;4.03;1.40;;;;;;;27.15;nan;99774.78;5022136;28;20025;-77
2023/08/01 10:38:10;;;;;;;5.47;1.55;;;;;;;27.18;nan;99774.09;5022559;28;20022;-70
2023/08/01 10:40:42;;;;;;;4.55;1.48;;;;;;;27.24;nan;99755.69;5019473;28;20056;-71
2023/08/01 10:43:21;;;;;;;3.67;1.55;;;;;;;27.41;nan;99759.94;5023021;28;20060;-69
2023/08/01 10:45:47;;;;;;;2.72;1.40;;;;;;;27.44;nan;99760.00;5017470;28;20018;-70
2023/08/01 10:48:13;;;;;;;2.83;1.58;;;;;;;27.49;nan;99757.03;5020859;28;20067;-71
2023/08/01 10:50:39;;;;;;;2.65;1.50;;;;;;;27.56;nan;99765.28;5015224;28;20292;-70
2023/08/01 10:53:08;;;;;;;2.17;1.23;;;;;;;27.62;nan;99752.25;5017234;28;20056;-69
2023/08/01 10:55:45;;;;;;;2.38;1.40;;;;;;;27.64;nan;99735.69;5020558;28;20026;-71
2023/08/01 10:58:11;;;;;;;3.13;1.70;;;;;;;27.73;nan;99750.56;5019295;28;20033;-70
2023/08/01 11:00:36;;;;;;;3.35;1.73;;;;;;;27.71;nan;99741.22;5018855;28;20044;-68
2023/08/01 11:03:02;;;;;;;4.13;1.70;;;;;;;27.71;nan;99733.13;5016765;28;20373;-70
2023/08/01 11:05:29;;;;;;;4.40;1.65;;;;;;;27.85;nan;99736.13;5018480;28;20769;-70
2023/08/01 11:08:00;;;;;;;2.63;1.60;;;;;;;27.83;nan;99719.47;5017206;28;20140;-69
2023/08/01 11:10:27;;;;;;;7.10;1.90;;;;;;;27.91;nan;99723.06;5017436;28;20033;-70
2023/08/01 11:12:55;;;;;;;3.30;1.38;;;;;;;27.94;nan;99719.66;5032174;28;20480;-70
2023/08/01 11:15:21;;;;;;;7.80;1.93;;;;;;;28.11;nan;99738.16;5018028;28;20040;-69
2023/08/01 11:17:52;;;;;;;4.35;1.73;;;;;;;28.12;nan;99722.69;5018351;28;20272;-70
2023/08/01 11:20:20;;;;;;;3.70;2.17;;;;;;;28.15;nan;99709.22;5012391;28;20127;-68
2023/08/01 11:22:57;;;;;;;7.80;1.80;;;;;;;28.26;nan;99724.88;5016308;28;20046;-69
2023/08/01 11:25:42;;;;;;;4.72;1.70;;;;;;;28.27;nan;99721.78;5017103;28;20118;-70
2023/08/01 11:28:10;;;;;;;5.88;1.55;;;;;;;28.31;nan;99721.88;5016669;28;20028;-69
2023/08/01 11:30:36;;;;;;;2.42;1.50;;;;;;;28.22;nan;99700.44;5017426;28;20029;-70
2023/08/01 11:33:04;;;;;;;2.60;1.88;;;;;;;28.28;nan;99698.19;5014690;28;20113;-70
2023/08/01 11:35:29;;;;;;;5.95;1.80;;;;;;;28.26;nan;99687.75;5017789;28;20034;-70
2023/08/01 11:37:56;;;;;;;4.22;1.45;;;;;;;28.35;nan;99707.25;5013612;28;20032;-70
2023/08/01 11:40:22;;;;;;;3.95;1.83;;;;;;;28.38;nan;99708.44;5021012;28;20041;-69
2023/08/01 11:42:56;;;;;;;3.08;1.73;;;;;;;28.42;nan;99701.13;5020946;28;20509;-73
2023/08/01 11:45:21;;;;;;;3.17;1.65;;;;;;;28.37;nan;99682.50;5014968;28;20117;-70